Time,TemperatureF,DewpointF,PressureIn,WindDirection,WindDirectionDegrees,WindSpeedMPH,WindSpeedGustMPH,Humidity,HourlyPrecipIn,Conditions,Clouds,dailyrainin,SoftwareType,DateUTC
2013-01-24 00:22:00,41.0,32.0,30.02,SSW,210,12.0,17.0,70,0.00,,,-99.99,,2013-01-24 08:22:00,
2013-01-24 00:32:00,41.0,32.0,30.02,SSW,210,12.0,17.0,70,0.00,,,-99.99,,2013-01-24 08:32:00,
2013-01-24 00:42:00,41.0,32.0,30.02,SSW,210,12.0,17.0,70,0.00,,,-99.99,,2013-01-24 08:42:00,
2013-01-24 01:22:00,41.0,30.0,30.02,SW,230,10.0,17.0,65,0.00,,,-99.99,,2013-01-24 09:22:00,
2013-01-24 01:33:00,41.0,30.0,30.02,SW,230,10.0,17.0,65,0.00,,,-99.99,,2013-01-24 09:33:00,
2013-01-24 01:42:00,41.0,30.0,30.02,SW,230,10.0,17.0,65,0.00,,,-99.99,,2013-01-24 09:42:00,
2013-01-24 02:22:00,40.0,32.0,30.04,SW,220,5.0,16.0,73,0.00,,,-99.99,,2013-01-24 10:22:00,
2013-01-24 03:22:00,39.0,34.0,30.06,SSW,210,10.0,13.0,82,0.00,,,-99.99,,2013-01-24 11:22:00,
2013-01-24 03:33:00,39.0,34.0,30.06,SSW,210,10.0,13.0,82,0.00,,,-99.99,,2013-01-24 11:33:00,
2013-01-24 03:42:00,39.0,34.0,30.06,SSW,210,10.0,13.0,82,0.00,,,-99.99,,2013-01-24 11:42:00,
2013-01-24 04:22:00,39.0,35.0,30.05,SSW,210,4.0,14.0,87,0.04,,,-99.99,,2013-01-24 12:22:00,
2013-01-24 04:33:00,39.0,35.0,30.05,SSW,210,4.0,14.0,87,0.04,,,-99.99,,2013-01-24 12:33:00,
2013-01-24 04:42:00,39.0,35.0,30.05,SSW,210,4.0,14.0,87,0.04,,,-99.99,,2013-01-24 12:42:00,
2013-01-24 05:22:00,38.0,36.0,30.06,SSW,200,14.0,18.0,93,0.03,,,-99.99,,2013-01-24 13:22:00,
2013-01-24 05:33:00,38.0,36.0,30.06,SSW,200,14.0,18.0,93,0.03,,,-99.99,,2013-01-24 13:33:00,
2013-01-24 05:42:00,38.0,36.0,30.06,SSW,200,14.0,18.0,93,0.03,,,-99.99,,2013-01-24 13:42:00,
2013-01-24 05:43:00,41.0,40.0,30.05,SSW,200,17.0,18.0,96,0.08,,,-99.99,,2013-01-24 13:43:00,
2013-01-24 06:22:00,41.0,40.0,30.05,SSW,200,17.0,18.0,96,0.08,,,-99.99,,2013-01-24 14:22:00,
2013-01-24 06:33:00,41.0,40.0,30.05,SSW,200,17.0,18.0,96,0.08,,,-99.99,,2013-01-24 14:33:00,
2013-01-24 06:43:00,42.0,41.0,30.08,SSW,200,5.0,18.0,97,0.07,,,-99.99,,2013-01-24 14:43:00,
2013-01-24 07:22:00,42.0,41.0,30.08,SSW,200,5.0,18.0,97,0.07,,,-99.99,,2013-01-24 15:22:00,
2013-01-24 07:33:00,42.0,41.0,30.08,SSW,200,5.0,18.0,97,0.07,,,-99.99,,2013-01-24 15:33:00,
2013-01-24 08:22:00,42.0,41.0,30.09,SSW,200,12.0,17.0,97,0.06,,,-99.99,,2013-01-24 16:22:00,
2013-01-24 08:33:00,42.0,41.0,30.09,SSW,200,12.0,17.0,97,0.06,,,-99.99,,2013-01-24 16:33:00,
2013-01-24 08:42:00,42.0,41.0,30.09,SSW,200,12.0,17.0,97,0.06,,,-99.99,,2013-01-24 16:42:00,
2013-01-24 09:32:00,42.0,41.0,30.12,SSW,200,7.0,16.0,97,0.06,,,-99.99,,2013-01-24 17:32:00,
2013-01-24 09:42:00,42.0,41.0,30.12,SSW,200,7.0,16.0,97,0.06,,,-99.99,,2013-01-24 17:42:00,
2013-01-24 10:22:00,42.0,41.0,30.15,SSW,200,5.0,12.0,98,0.16,,,-99.99,,2013-01-24 18:22:00,
2013-01-24 10:32:00,42.0,41.0,30.15,SSW,200,5.0,12.0,98,0.16,,,-99.99,,2013-01-24 18:32:00,
2013-01-24 10:42:00,42.0,41.0,30.15,SSW,200,5.0,12.0,98,0.16,,,-99.99,,2013-01-24 18:42:00,
2013-01-24 11:22:00,42.0,41.0,30.19,SSW,200,8.0,15.0,98,0.05,,,-99.99,,2013-01-24 19:22:00,
2013-01-24 12:22:00,44.0,43.0,30.16,SSW,210,4.0,9.0,98,0.02,,,-99.99,,2013-01-24 20:22:00,
2013-01-24 12:32:00,44.0,43.0,30.16,SSW,210,4.0,9.0,98,0.02,,,-99.99,,2013-01-24 20:32:00,
2013-01-24 12:42:00,44.0,43.0,30.16,SSW,210,4.0,9.0,98,0.02,,,-99.99,,2013-01-24 20:42:00,
2013-01-24 13:22:00,44.0,43.0,30.14,SSW,200,6.0,11.0,98,0.01,,,-99.99,,2013-01-24 21:22:00,
2013-01-24 13:33:00,44.0,43.0,30.14,SSW,200,6.0,11.0,98,0.01,,,-99.99,,2013-01-24 21:33:00,
2013-01-24 13:42:00,44.0,43.0,30.14,SSW,200,6.0,11.0,98,0.01,,,-99.99,,2013-01-24 21:42:00,
2013-01-24 14:22:00,47.0,46.0,30.12,SSW,210,5.0,7.0,98,0.00,,,-99.99,,2013-01-24 22:22:00,
2013-01-24 14:32:00,47.0,46.0,30.12,SSW,210,5.0,7.0,98,0.00,,,-99.99,,2013-01-24 22:32:00,
2013-01-24 14:42:00,47.0,46.0,30.12,SSW,210,5.0,7.0,98,0.00,,,-99.99,,2013-01-24 22:42:00,
2013-01-24 15:22:00,48.0,47.0,30.12,North,0,0.0,6.0,98,0.00,,,-99.99,,2013-01-24 23:22:00,
2013-01-24 15:32:00,48.0,47.0,30.12,North,0,0.0,6.0,98,0.00,,,-99.99,,2013-01-24 23:32:00,
2013-01-24 15:42:00,48.0,47.0,30.12,North,0,0.0,6.0,98,0.00,,,-99.99,,2013-01-24 23:42:00,
2013-01-24 16:22:00,49.0,48.0,30.10,North,0,0.0,2.0,98,0.00,,,-99.99,,2013-01-25 00:22:00,
2013-01-24 16:32:00,49.0,48.0,30.10,North,0,0.0,2.0,98,0.00,,,-99.99,,2013-01-25 00:32:00,
2013-01-24 16:41:00,49.0,48.0,30.10,North,0,0.0,2.0,98,0.00,,,-99.99,,2013-01-25 00:41:00,
2013-01-24 17:21:00,46.0,45.0,30.14,NE,50,6.0,7.0,98,0.00,,,-99.99,,2013-01-25 01:21:00,
2013-01-24 17:32:00,46.0,45.0,30.14,NE,50,6.0,7.0,98,0.00,,,-99.99,,2013-01-25 01:32:00,
2013-01-24 17:42:00,46.0,45.0,30.14,NE,50,6.0,7.0,98,0.00,,,-99.99,,2013-01-25 01:42:00,
2013-01-24 18:22:00,44.0,43.0,30.16,NNE,30,9.0,12.0,98,0.00,,,-99.99,,2013-01-25 02:22:00,
2013-01-24 18:32:00,44.0,43.0,30.16,NNE,30,9.0,12.0,98,0.00,,,-99.99,,2013-01-25 02:32:00,
2013-01-24 18:42:00,44.0,43.0,30.16,NNE,30,9.0,12.0,98,0.00,,,-99.99,,2013-01-25 02:42:00,
2013-01-24 19:22:00,43.0,42.0,30.17,NNE,20,7.0,9.0,98,0.00,,,-99.99,,2013-01-25 03:22:00,
2013-01-24 19:32:00,43.0,42.0,30.17,NNE,20,7.0,9.0,98,0.00,,,-99.99,,2013-01-25 03:32:00,
2013-01-24 19:41:00,43.0,42.0,30.17,NNE,20,7.0,9.0,98,0.00,,,-99.99,,2013-01-25 03:41:00,
2013-01-24 20:22:00,45.0,45.0,30.15,ENE,60,3.0,5.0,99,0.00,,,-99.99,,2013-01-25 04:22:00,
2013-01-24 20:32:00,45.0,45.0,30.15,ENE,60,3.0,5.0,99,0.00,,,-99.99,,2013-01-25 04:32:00,
2013-01-24 20:41:00,45.0,45.0,30.15,ENE,60,3.0,5.0,99,0.00,,,-99.99,,2013-01-25 04:41:00,
2013-01-24 20:43:00,46.0,45.0,30.14,ESE,110,3.0,6.0,98,0.00,,,-99.99,,2013-01-25 04:43:00,
2013-01-24 21:22:00,46.0,45.0,30.14,ESE,110,3.0,6.0,98,0.00,,,-99.99,,2013-01-25 05:22:00,
2013-01-24 21:32:00,46.0,45.0,30.14,ESE,110,3.0,6.0,98,0.00,,,-99.99,,2013-01-25 05:32:00,
2013-01-24 22:21:00,48.0,47.0,30.14,SE,130,3.0,7.0,98,0.00,,,-99.99,,2013-01-25 06:21:00,
2013-01-24 22:32:00,48.0,47.0,30.14,SE,130,3.0,7.0,98,0.00,,,-99.99,,2013-01-25 06:32:00,
2013-01-24 22:41:00,48.0,47.0,30.14,SE,130,3.0,7.0,98,0.00,,,-99.99,,2013-01-25 06:41:00,
2013-01-24 23:21:00,44.0,42.0,30.17,SSE,150,1.0,3.0,93,0.00,,,-99.99,,2013-01-25 07:21:00,
2013-01-24 23:31:00,44.0,42.0,30.17,SSE,150,1.0,3.0,93,0.00,,,-99.99,,2013-01-25 07:31:00,
2013-01-24 23:41:00,44.0,42.0,30.17,SSE,150,1.0,3.0,93,0.00,,,-99.99,,2013-01-25 07:41:00,